Time;durP1;ratioP1;P1;durP2;ratioP2;P2;SDS_P1;SDS_P2;PMS_P1;PMS_P2;Temp;Humidity;BMP_temperature;BMP_pressure;BME280_temperature;BME280_humidity;BME280_pressure;Samples;Min_cycle;Max_cycle;Signal;HPM_P1;HPM_P2
2022/09/21 00:00:37;;;;;;;3.92;0.70;;;;;;;23.07;44.57;101089.28;5091954;28;20048;-52
2022/09/21 00:03:04;;;;;;;3.30;0.85;;;;;;;23.19;44.24;101081.53;5094241;28;20050;-48
2022/09/21 00:05:30;;;;;;;3.20;0.88;;;;;;;23.29;44.39;101081.47;5091529;28;20028;-49
2022/09/21 00:08:02;;;;;;;5.45;0.80;;;;;;;23.25;45.01;101069.47;5092439;28;20059;-48
2022/09/21 00:10:28;;;;;;;1.95;0.60;;;;;;;23.30;45.48;101066.72;5092015;28;20028;-49
2022/09/21 00:12:56;;;;;;;2.38;1.00;;;;;;;23.37;44.19;101069.91;5091702;28;20035;-49
2022/09/21 00:15:23;;;;;;;4.90;0.95;;;;;;;23.48;43.97;101061.66;5091198;28;20028;-48
2022/09/21 00:17:52;;;;;;;3.17;0.60;;;;;;;23.40;44.59;101066.63;5090488;28;20050;-49
2022/09/21 00:20:20;;;;;;;6.13;1.13;;;;;;;23.44;43.76;101066.88;5111155;28;20024;-51
2022/09/21 00:22:47;;;;;;;2.53;0.70;;;;;;;23.53;43.64;101064.34;5109540;28;20076;-51
2022/09/21 00:25:14;;;;;;;1.73;0.73;;;;;;;23.50;44.09;101073.13;5111869;28;20369;-48
2022/09/21 00:27:40;;;;;;;1.65;0.70;;;;;;;23.40;44.54;101071.28;5106996;28;20028;-48
2022/09/21 00:30:07;;;;;;;3.97;1.10;;;;;;;23.33;44.55;101065.34;5089652;28;20028;-48
2022/09/21 00:32:36;;;;;;;2.30;0.70;;;;;;;23.40;43.42;101077.56;5077478;28;20028;-51
2022/09/21 00:35:06;;;;;;;3.38;0.93;;;;;;;23.18;44.24;101069.00;5082841;28;20052;-51
2022/09/21 00:37:33;;;;;;;2.85;0.85;;;;;;;23.22;44.15;101085.63;5087755;28;20028;-52
2022/09/21 00:39:59;;;;;;;2.30;0.70;;;;;;;23.23;44.20;101084.53;5091087;28;20020;-50
2022/09/21 00:42:31;;;;;;;2.25;0.70;;;;;;;23.05;44.39;101081.38;5090710;28;20058;-52
2022/09/21 00:44:58;;;;;;;3.03;0.85;;;;;;;22.96;44.83;101082.25;5090796;28;20035;-49
2022/09/21 00:47:41;;;;;;;5.18;1.08;;;;;;;22.77;46.05;101079.34;5091831;28;20029;-51
2022/09/21 00:50:11;;;;;;;5.35;2.70;;;;;;;22.70;46.48;101074.19;5091456;28;20504;-50
2022/09/21 00:52:41;;;;;;;3.95;1.30;;;;;;;22.73;46.29;101081.00;5091302;28;20077;-51
2022/09/21 00:55:41;;;;;;;2.67;0.80;;;;;;;22.64;45.32;101078.84;5078104;28;20104;-52
2022/09/21 00:58:14;;;;;;;2.28;0.70;;;;;;;22.67;45.54;101081.03;5057207;28;20033;-52
2022/09/21 01:00:40;;;;;;;2.78;0.70;;;;;;;22.70;46.02;101076.91;5071289;28;20127;-49
2022/09/21 01:03:08;;;;;;;5.35;1.42;;;;;;;22.69;46.01;101082.66;5084398;28;20040;-49
2022/09/21 01:05:34;;;;;;;2.63;1.00;;;;;;;22.64;45.16;101086.22;5111063;28;20031;-50
2022/09/21 01:08:03;;;;;;;1.90;0.93;;;;;;;22.61;45.03;101086.81;5100041;28;20039;-48
2022/09/21 01:10:44;;;;;;;4.45;0.90;;;;;;;22.45;46.34;101091.50;5091298;28;20048;-48
2022/09/21 01:13:44;;;;;;;5.85;1.15;;;;;;;22.38;46.95;101078.16;5095283;28;20028;-48
2022/09/21 01:16:21;;;;;;;5.75;1.10;;;;;;;22.12;46.70;101076.63;5094430;28;20028;-48
2022/09/21 01:18:56;;;;;;;5.22;1.10;;;;;;;22.11;47.10;101083.19;5094436;28;20044;-48
2022/09/21 01:21:39;;;;;;;2.13;0.60;;;;;;;22.01;47.21;101080.44;5112902;28;20031;-49
2022/09/21 01:24:23;;;;;;;6.32;0.95;;;;;;;21.86;47.54;101079.38;5107637;28;20116;-51
2022/09/21 01:27:13;;;;;;;4.37;0.97;;;;;;;21.80;47.83;101080.47;5079314;28;20065;-51
2022/09/21 01:29:50;;;;;;;1.77;0.68;;;;;;;21.97;47.34;101074.72;5113603;28;20122;-49
2022/09/21 01:32:36;;;;;;;2.92;0.70;;;;;;;21.88;47.11;101070.94;5099594;28;20035;-52
2022/09/21 01:35:13;;;;;;;4.07;0.73;;;;;;;21.66;48.22;101067.72;5084188;28;20070;-48
2022/09/21 01:37:47;;;;;;;1.98;0.80;;;;;;;21.66;48.25;101065.81;5094855;28;20144;-50
2022/09/21 01:40:24;;;;;;;2.55;0.98;;;;;;;21.54;48.61;101070.69;5104292;28;20103;-48
2022/09/21 01:42:53;;;;;;;4.45;1.60;;;;;;;21.56;48.18;101071.25;5094838;28;20044;-48
2022/09/21 01:45:29;;;;;;;3.95;1.40;;;;;;;21.66;47.43;101078.59;5090956;28;20484;-48
2022/09/21 01:47:58;;;;;;;4.32;1.05;;;;;;;21.43;47.43;101075.34;5093646;28;20036;-49
2022/09/21 01:50:30;;;;;;;4.20;1.52;;;;;;;21.16;49.07;101075.59;5093288;28;20535;-51
2022/09/21 01:53:01;;;;;;;6.65;1.33;;;;;;;21.15;49.05;101081.28;5083145;28;20583;-50
2022/09/21 01:55:39;;;;;;;3.05;1.30;;;;;;;20.94;50.15;101085.88;5094283;28;20024;-49
2022/09/21 01:58:29;;;;;;;5.68;1.35;;;;;;;20.82;51.22;101078.78;5093096;28;20035;-51
2022/09/21 02:00:56;;;;;;;2.35;0.98;;;;;;;20.81;51.85;101077.13;5114399;28;20128;-51
2022/09/21 02:03:35;;;;;;;4.53;0.93;;;;;;;20.73;52.91;101087.72;5114596;27;20038;-49
2022/09/21 02:06:04;;;;;;;4.07;1.08;;;;;;;20.59;52.92;101084.69;5114144;28;20035;-48
2022/09/21 02:08:32;;;;;;;5.05;0.95;;;;;;;20.60;53.25;101083.63;5110495;28;20032;-49
2022/09/21 02:11:01;;;;;;;6.15;1.48;;;;;;;20.49;53.87;101087.38;5093965;28;20017;-49
2022/09/21 02:13:32;;;;;;;1.95;0.95;;;;;;;20.17;54.88;101099.16;5096537;28;20035;-49
2022/09/21 02:16:08;;;;;;;9.35;1.23;;;;;;;20.24;54.74;101102.44;5093188;28;20024;-48
2022/09/21 02:18:48;;;;;;;3.47;1.00;;;;;;;20.28;54.50;101098.13;5093429;28;20603;-48
2022/09/21 02:21:24;;;;;;;2.42;1.23;;;;;;;20.37;53.79;101100.34;5093627;28;20035;-48
2022/09/21 02:24:02;;;;;;;4.47;1.50;;;;;;;20.09;54.23;101099.66;5091574;28;20032;-49
2022/09/21 02:26:49;;;;;;;5.45;1.30;;;;;;;20.02;54.90;101097.16;5081375;28;20552;-48
2022/09/21 02:29:48;;;;;;;3.88;1.35;;;;;;;19.80;57.31;101104.63;5093488;28;20035;-48
2022/09/21 02:32:23;;;;;;;4.35;1.30;;;;;;;19.94;58.38;101113.16;5068066;28;20552;-50
2022/09/21 02:34:59;;;;;;;3.75;0.82;;;;;;;19.82;56.54;101105.16;5073046;28;20028;-49
2022/09/21 02:37:43;;;;;;;3.72;1.00;;;;;;;19.75;57.28;101108.13;5089426;28;20028;-47
2022/09/21 02:40:17;;;;;;;2.75;1.00;;;;;;;19.49;59.13;101114.41;5073197;28;20385;-49
2022/09/21 02:42:46;;;;;;;6.88;1.48;;;;;;;19.55;59.62;101113.38;5084036;28;20055;-48
2022/09/21 02:45:24;;;;;;;4.47;1.40;;;;;;;19.43;60.70;101108.13;5090673;28;20032;-51
2022/09/21 02:47:53;;;;;;;5.68;1.52;;;;;;;19.38;61.30;101115.41;5096866;28;20031;-49
2022/09/21 02:50:26;;;;;;;3.72;1.38;;;;;;;19.45;61.90;101118.72;5093030;28;20039;-49
2022/09/21 02:52:54;;;;;;;4.05;1.08;;;;;;;19.48;61.64;101113.56;5078256;28;20020;-49
2022/09/21 02:55:20;;;;;;;8.95;1.58;;;;;;;19.32;62.61;101129.97;5092968;28;20490;-50
2022/09/21 02:57:48;;;;;;;5.95;1.50;;;;;;;19.23;62.84;101126.94;5093040;28;20081;-50
2022/09/21 03:00:15;;;;;;;4.65;1.23;;;;;;;19.09;63.78;101126.50;5092749;28;20027;-50
2022/09/21 03:02:44;;;;;;;3.88;1.40;;;;;;;19.15;63.41;101135.50;5092765;28;20048;-50
2022/09/21 03:05:13;;;;;;;4.70;1.52;;;;;;;19.19;63.27;101134.75;5102593;28;20024;-51
2022/09/21 03:07:39;;;;;;;5.95;1.73;;;;;;;19.18;63.33;101138.53;5112920;28;20038;-52
2022/09/21 03:10:07;;;;;;;9.07;2.05;;;;;;;19.07;63.74;101142.22;5113096;27;20028;-52
2022/09/21 03:12:33;;;;;;;5.03;1.55;;;;;;;19.09;63.60;101147.38;5112996;28;20073;-50
2022/09/21 03:14:59;;;;;;;5.60;1.83;;;;;;;19.18;63.62;101135.84;5105245;28;20050;-52
2022/09/21 03:17:26;;;;;;;10.07;1.80;;;;;;;19.13;63.63;101143.91;5081971;28;20027;-52
2022/09/21 03:19:56;;;;;;;4.88;1.50;;;;;;;19.13;63.66;101143.91;5112931;28;20135;-51
2022/09/21 03:22:23;;;;;;;3.83;1.60;;;;;;;19.27;62.68;101144.34;5110912;28;20027;-50
2022/09/21 03:24:50;;;;;;;4.25;1.20;;;;;;;19.34;62.34;101150.38;5092905;28;20024;-52
2022/09/21 03:27:21;;;;;;;5.15;1.45;;;;;;;19.09;62.85;101150.91;5069874;28;20421;-53
2022/09/21 03:29:47;;;;;;;6.60;1.63;;;;;;;18.88;63.68;101149.09;5068734;28;20841;-52
2022/09/21 03:32:13;;;;;;;6.40;1.77;;;;;;;18.72;64.61;101148.91;5087214;28;20043;-52
2022/09/21 03:34:40;;;;;;;4.10;1.52;;;;;;;18.62;65.69;101156.88;5110385;28;20032;-49
2022/09/21 03:37:08;;;;;;;4.85;1.63;;;;;;;18.42;65.79;101151.97;5101080;28;20030;-50
2022/09/21 03:39:35;;;;;;;4.68;1.50;;;;;;;18.66;65.50;101157.19;5107620;28;20082;-48
2022/09/21 03:42:02;;;;;;;4.22;1.50;;;;;;;18.25;64.99;101156.63;5111144;28;20027;-48
2022/09/21 03:44:29;;;;;;;4.68;1.20;;;;;;;18.36;64.68;101163.81;5101514;28;20035;-49
2022/09/21 03:46:56;;;;;;;2.42;1.50;;;;;;;18.38;64.45;101167.13;5110650;28;20507;-49
2022/09/21 03:49:24;;;;;;;6.32;1.70;;;;;;;18.60;63.84;101169.88;5096731;28;20039;-49
2022/09/21 03:51:50;;;;;;;4.43;1.60;;;;;;;18.62;64.14;101166.88;5092955;28;20036;-48
2022/09/21 03:54:16;;;;;;;6.78;1.35;;;;;;;18.75;63.66;101157.59;5110825;28;20042;-50
2022/09/21 03:56:42;;;;;;;5.25;1.50;;;;;;;18.65;63.75;101163.66;5101585;28;20074;-48
2022/09/21 03:59:08;;;;;;;7.43;1.95;;;;;;;18.61;63.96;101171.50;5095079;28;20063;-48
2022/09/21 04:01:35;;;;;;;4.88;1.55;;;;;;;18.59;64.00;101170.91;5110685;28;20027;-51
2022/09/21 04:04:01;;;;;;;3.05;1.23;;;;;;;18.66;63.70;101165.31;5107011;28;20062;-48
2022/09/21 04:06:28;;;;;;;3.85;1.25;;;;;;;18.58;63.66;101174.69;5108765;28;20103;-51
2022/09/21 04:08:55;;;;;;;3.38;1.10;;;;;;;18.62;63.41;101172.31;5109727;28;20376;-48
2022/09/21 04:11:21;;;;;;;6.45;1.90;;;;;;;18.60;63.39;101177.16;5110211;28;20035;-50
2022/09/21 04:14:00;;;;;;;4.35;1.17;;;;;;;18.58;63.37;101180.13;5090717;28;20098;-49
2022/09/21 04:16:27;;;;;;;2.85;1.35;;;;;;;18.54;62.87;101173.53;5084550;28;20023;-48
2022/09/21 04:18:54;;;;;;;6.28;1.38;;;;;;;18.33;63.46;101172.47;5110432;28;20040;-48
2022/09/21 04:21:23;;;;;;;3.63;1.30;;;;;;;18.36;64.08;101168.44;5110517;28;20036;-49
2022/09/21 04:23:49;;;;;;;6.57;1.48;;;;;;;18.38;63.28;101171.72;5106374;28;20031;-49
2022/09/21 04:26:27;;;;;;;6.93;2.08;;;;;;;18.35;63.47;101180.34;5071501;28;20039;-48
2022/09/21 04:28:54;;;;;;;6.85;1.45;;;;;;;18.20;63.71;101186.34;5102187;28;20030;-48
2022/09/21 04:31:21;;;;;;;7.47;2.10;;;;;;;17.98;64.80;101180.03;5102548;28;20028;-48
2022/09/21 04:33:49;;;;;;;4.20;1.98;;;;;;;18.03;64.57;101183.66;5108709;28;20373;-48
2022/09/21 04:36:17;;;;;;;4.13;1.60;;;;;;;18.16;63.63;101183.34;5110533;28;20034;-49
2022/09/21 04:38:44;;;;;;;2.80;1.50;;;;;;;18.20;63.39;101183.63;5105989;28;20128;-48
2022/09/21 04:41:11;;;;;;;3.53;1.45;;;;;;;18.19;63.25;101182.81;5111518;28;20586;-48
2022/09/21 04:43:37;;;;;;;5.53;1.70;;;;;;;17.90;64.03;101184.00;5090917;28;20059;-48
2022/09/21 04:46:06;;;;;;;4.18;1.40;;;;;;;18.11;63.40;101185.97;5103971;28;20027;-48
2022/09/21 04:48:32;;;;;;;4.95;1.50;;;;;;;17.94;63.85;101179.75;5111348;28;20031;-48
2022/09/21 04:50:58;;;;;;;6.43;1.73;;;;;;;17.91;63.70;101177.50;5106435;28;20030;-48
2022/09/21 04:53:24;;;;;;;3.97;1.48;;;;;;;17.87;63.59;101177.16;5114371;28;20028;-48
2022/09/21 04:55:51;;;;;;;6.03;1.70;;;;;;;17.80;64.06;101183.81;5113886;28;20110;-48
2022/09/21 04:58:17;;;;;;;4.13;1.58;;;;;;;16.95;66.60;101188.19;5106491;28;20028;-48
2022/09/21 05:00:43;;;;;;;6.35;1.60;;;;;;;16.52;68.73;101183.19;5106315;28;20024;-48
2022/09/21 05:03:10;;;;;;;6.15;1.83;;;;;;;16.02;70.19;101181.81;5094895;28;20031;-49
2022/09/21 05:05:36;;;;;;;5.07;1.50;;;;;;;16.04;70.36;101176.97;5108844;28;20084;-48
2022/09/21 05:08:02;;;;;;;7.70;1.63;;;;;;;15.73;71.43;101171.91;5114323;28;20024;-48
2022/09/21 05:10:29;;;;;;;3.83;1.30;;;;;;;15.54;72.22;101161.13;5115258;28;20026;-48
2022/09/21 05:12:55;;;;;;;6.40;1.80;;;;;;;15.84;71.24;101155.72;5106815;28;20031;-47
2022/09/21 05:15:21;;;;;;;4.20;1.40;;;;;;;16.19;70.21;101160.31;5111789;28;20028;-49
2022/09/21 05:17:47;;;;;;;5.72;1.50;;;;;;;16.26;69.50;101157.50;5110491;28;20107;-48
2022/09/21 05:20:14;;;;;;;4.60;1.40;;;;;;;16.02;70.04;101164.78;5094988;28;20063;-48
2022/09/21 05:22:40;;;;;;;6.45;1.58;;;;;;;16.12;69.69;101167.72;5111411;28;20035;-48
2022/09/21 05:25:07;;;;;;;5.80;1.60;;;;;;;15.99;70.32;101170.63;5090200;28;20384;-49
2022/09/21 05:27:33;;;;;;;6.22;1.50;;;;;;;16.06;69.69;101174.88;5099273;28;20107;-48
2022/09/21 05:29:59;;;;;;;3.25;1.35;;;;;;;16.06;69.86;101174.88;5113974;28;20027;-49
2022/09/21 05:32:41;;;;;;;6.00;1.23;;;;;;;16.30;68.83;101183.81;5111548;28;20031;-50
2022/09/21 05:35:22;;;;;;;3.03;1.13;;;;;;;16.45;68.57;101183.34;5094231;28;20071;-48
2022/09/21 05:38:00;;;;;;;3.35;1.20;;;;;;;16.20;69.08;101194.38;5109682;28;20084;-49
2022/09/21 05:40:27;;;;;;;6.18;1.30;;;;;;;16.02;69.82;101189.91;5110640;28;20027;-52
2022/09/21 05:42:53;;;;;;;6.90;1.60;;;;;;;15.85;70.59;101183.53;5109112;28;20070;-48
2022/09/21 05:45:21;;;;;;;8.63;1.80;;;;;;;15.60;71.41;101180.97;5093930;28;20028;-50
2022/09/21 05:48:08;;;;;;;7.10;1.90;;;;;;;15.90;70.48;101180.97;5095976;28;20456;-47
2022/09/21 05:50:56;;;;;;;4.43;1.55;;;;;;;16.05;69.60;101173.25;5112151;28;20437;-48
2022/09/21 05:53:49;;;;;;;3.95;1.20;;;;;;;15.68;71.12;101172.59;5081618;28;20039;-47
2022/09/21 05:56:27;;;;;;;4.35;1.55;;;;;;;15.52;71.88;101163.25;5082380;28;20552;-48
2022/09/21 05:59:19;;;;;;;6.40;1.50;;;;;;;15.54;71.90;101171.13;5101436;28;20063;-48
2022/09/21 06:02:01;;;;;;;4.53;1.38;;;;;;;15.62;71.82;101164.59;5089774;28;20015;-48
2022/09/21 06:04:28;;;;;;;4.68;1.60;;;;;;;15.58;72.12;101165.03;5112517;28;20070;-48
2022/09/21 06:06:54;;;;;;;8.13;1.63;;;;;;;15.48;72.63;101167.47;5111665;28;20098;-48
2022/09/21 06:09:20;;;;;;;4.63;1.73;;;;;;;15.39;73.16;101157.25;5110896;28;20027;-49
2022/09/21 06:11:47;;;;;;;4.07;1.40;;;;;;;15.33;73.21;101153.59;5110292;28;20422;-51
2022/09/21 06:14:13;;;;;;;6.47;1.77;;;;;;;15.30;73.52;101148.66;5088552;28;20036;-49
2022/09/21 06:16:41;;;;;;;5.07;1.30;;;;;;;15.27;73.63;101149.94;5103922;28;20397;-49
2022/09/21 06:19:11;;;;;;;5.57;1.27;;;;;;;15.27;73.33;101151.81;5097006;28;20036;-49
2022/09/21 06:21:37;;;;;;;9.00;1.67;;;;;;;15.30;73.75;101143.25;5100418;28;20058;-49
2022/09/21 06:24:03;;;;;;;6.05;1.80;;;;;;;15.34;73.43;101149.84;5112181;28;20065;-49
2022/09/21 06:26:30;;;;;;;3.25;1.70;;;;;;;15.33;73.51;101148.22;5114001;28;20028;-47
2022/09/21 06:28:56;;;;;;;3.03;1.45;;;;;;;15.25;73.35;101148.50;5103988;28;20035;-47
2022/09/21 06:31:22;;;;;;;6.47;1.17;;;;;;;15.32;72.83;101154.63;5113829;28;20024;-47
2022/09/21 06:33:48;;;;;;;3.72;1.42;;;;;;;15.40;72.60;101151.63;5112213;27;20110;-49
2022/09/21 06:36:16;;;;;;;3.55;1.20;;;;;;;15.79;71.52;101152.09;5114335;28;20542;-47
2022/09/21 06:38:42;;;;;;;7.25;1.90;;;;;;;15.90;70.61;101158.56;5109791;28;20026;-48
2022/09/21 06:41:08;;;;;;;4.28;1.30;;;;;;;15.84;70.65;101160.31;5113735;28;20035;-48
2022/09/21 06:43:35;;;;;;;3.95;1.55;;;;;;;15.81;70.92;101152.66;5094572;28;20035;-49
2022/09/21 06:46:02;;;;;;;7.07;1.50;;;;;;;15.77;71.36;101156.91;5102284;28;20035;-51
2022/09/21 06:48:31;;;;;;;5.35;1.42;;;;;;;15.89;70.76;101152.34;5104464;28;20021;-49
2022/09/21 06:51:03;;;;;;;4.80;1.38;;;;;;;15.84;70.74;101150.34;5072979;28;20055;-48
2022/09/21 06:53:31;;;;;;;3.92;1.13;;;;;;;15.96;70.62;101150.34;5086974;28;20394;-50
2022/09/21 06:56:06;;;;;;;9.48;1.77;;;;;;;16.07;70.00;101148.69;5099042;28;20514;-48
2022/09/21 06:58:34;;;;;;;4.07;1.58;;;;;;;15.91;70.49;101144.00;5103454;28;20031;-50
2022/09/21 07:01:11;;;;;;;4.82;2.35;;;;;;;16.28;69.41;101153.50;5105221;28;20032;-48
2022/09/21 07:03:39;;;;;;;11.63;5.97;;;;;;;16.51;68.47;101149.97;5094304;28;20031;-48
2022/09/21 07:06:06;;;;;;;9.70;4.97;;;;;;;16.61;68.08;101143.94;5092663;28;20051;-48
2022/09/21 07:08:34;;;;;;;9.73;3.78;;;;;;;16.39;68.35;101149.16;5092915;28;20362;-48
2022/09/21 07:11:03;;;;;;;7.03;2.53;;;;;;;16.30;68.10;101147.88;5097492;28;20059;-48
2022/09/21 07:13:30;;;;;;;3.47;1.42;;;;;;;16.36;68.14;101144.22;5084925;28;20058;-49
2022/09/21 07:15:56;;;;;;;5.43;1.60;;;;;;;16.24;68.32;101140.72;5108851;28;20479;-50
2022/09/21 07:18:23;;;;;;;5.03;1.30;;;;;;;15.97;68.71;101138.47;5111731;28;20134;-50
2022/09/21 07:20:49;;;;;;;2.58;1.00;;;;;;;15.78;69.44;101134.25;5111993;28;20031;-49
2022/09/21 07:23:19;;;;;;;4.13;1.00;;;;;;;15.88;69.25;101129.09;5109493;28;20495;-50
2022/09/21 07:25:51;;;;;;;4.70;1.10;;;;;;;16.06;68.69;101131.69;5111377;28;20031;-48
2022/09/21 07:28:18;;;;;;;5.43;1.30;;;;;;;16.28;68.67;101137.31;5102474;28;20056;-49
2022/09/21 07:30:44;;;;;;;5.55;1.38;;;;;;;16.29;68.23;101130.84;5111290;28;20030;-49
2022/09/21 07:33:11;;;;;;;4.72;1.20;;;;;;;16.45;67.60;101137.41;5110700;28;20484;-50
2022/09/21 07:35:37;;;;;;;3.13;1.10;;;;;;;16.55;67.25;101139.50;5112296;28;20047;-48
2022/09/21 07:38:06;;;;;;;3.13;0.90;;;;;;;16.71;66.87;101137.94;5109885;28;20092;-48
2022/09/21 07:40:34;;;;;;;5.15;1.15;;;;;;;16.65;67.31;101142.38;5108914;28;20464;-48
2022/09/21 07:43:03;;;;;;;5.45;1.17;;;;;;;16.73;66.74;101147.47;5088610;28;20044;-50
2022/09/21 07:45:30;;;;;;;4.75;1.25;;;;;;;16.77;66.84;101145.13;5097372;28;20073;-49
2022/09/21 07:48:04;;;;;;;3.58;1.33;;;;;;;16.85;66.55;101150.13;5090631;28;20515;-48
2022/09/21 07:50:33;;;;;;;3.97;1.65;;;;;;;16.85;66.53;101150.97;5088575;28;20035;-49
2022/09/21 07:53:00;;;;;;;3.85;1.45;;;;;;;16.79;66.80;101154.63;5097816;28;20034;-49
2022/09/21 07:55:27;;;;;;;5.82;1.17;;;;;;;16.75;67.50;101149.94;5113016;28;20034;-48
2022/09/21 08:00:37;;;;;;;5.20;1.30;;;;;;;16.06;70.17;101137.09;5076878;28;20170;-48
2022/09/21 08:03:05;;;;;;;2.47;1.30;;;;;;;15.97;70.83;101137.66;5110810;28;20059;-48
2022/09/21 08:05:32;;;;;;;7.68;1.60;;;;;;;15.78;71.82;101134.25;5110237;28;20032;-48
2022/09/21 08:07:58;;;;;;;2.78;1.20;;;;;;;15.80;71.81;101134.84;5111176;28;20046;-48
2022/09/21 08:10:29;;;;;;;2.95;1.30;;;;;;;15.76;71.98;101141.75;5112186;28;20460;-47
2022/09/21 08:12:58;;;;;;;4.55;1.33;;;;;;;15.95;71.35;101146.00;5102504;28;20102;-48
2022/09/21 08:15:24;;;;;;;4.03;1.27;;;;;;;16.34;70.32;101149.03;5108197;28;20040;-48
2022/09/21 08:17:50;;;;;;;4.97;1.85;;;;;;;16.33;70.00;101153.63;5091499;28;20020;-48
2022/09/21 08:20:17;;;;;;;3.55;1.45;;;;;;;16.42;69.59;101139.75;5091142;28;20035;-48
2022/09/21 08:22:43;;;;;;;3.13;1.33;;;;;;;16.53;69.21;101142.41;5091613;28;20020;-48
2022/09/21 08:25:09;;;;;;;8.05;1.33;;;;;;;16.58;69.10;101147.94;5078506;28;20064;-48
2022/09/21 08:27:37;;;;;;;4.95;1.40;;;;;;;16.58;69.07;101152.53;5081683;28;20027;-48
2022/09/21 08:30:04;;;;;;;4.63;1.42;;;;;;;16.29;69.60;101151.63;5112121;28;20052;-48
2022/09/21 08:32:31;;;;;;;6.85;1.30;;;;;;;16.00;71.63;101143.41;5111758;28;20030;-48
2022/09/21 08:34:57;;;;;;;5.68;1.25;;;;;;;15.77;71.42;101143.41;5086290;28;20025;-48
2022/09/21 08:37:23;;;;;;;3.10;1.20;;;;;;;16.02;70.94;101146.69;5071444;28;20025;-50
2022/09/21 08:39:49;;;;;;;2.83;1.15;;;;;;;15.68;71.51;101142.91;5071415;28;20016;-47
2022/09/21 08:43:04;;;;;;;5.18;1.27;;;;;;;15.64;71.89;101139.03;5071313;28;20024;-48
2022/09/21 08:45:40;;;;;;;4.90;1.30;;;;;;;15.81;71.39;101147.25;5092636;28;20044;-48
2022/09/21 08:48:19;;;;;;;5.82;1.25;;;;;;;16.03;70.77;101152.91;5096989;28;20032;-49
2022/09/21 08:50:51;;;;;;;3.50;1.27;;;;;;;16.14;70.41;101145.88;5097188;28;20393;-48
2022/09/21 08:53:44;;;;;;;7.50;1.50;;;;;;;16.01;70.12;101152.34;5097805;28;20380;-48
2022/09/21 08:56:13;;;;;;;4.53;1.20;;;;;;;15.74;71.51;101143.88;5110506;28;20028;-49
2022/09/21 08:58:40;;;;;;;3.38;1.35;;;;;;;15.84;71.49;101133.31;5102980;28;20106;-48
2022/09/21 09:01:15;;;;;;;5.07;1.33;;;;;;;16.18;70.19;101138.97;5109152;28;20126;-48
2022/09/21 09:03:46;;;;;;;;;;;;;;;16.36;69.61;101157.72;5109874;28;20028;-48
2022/09/21 09:06:46;;;;;;;4.43;1.20;;;;;;;16.17;70.03;101146.25;5110297;28;20356;-49
2022/09/21 09:09:12;;;;;;;4.43;1.17;;;;;;;16.01;70.91;101152.34;5110109;28;20038;-48
2022/09/21 09:11:42;;;;;;;3.55;1.20;;;;;;;15.95;71.03;101154.09;5108788;28;20031;-48
2022/09/21 09:14:29;;;;;;;6.95;1.55;;;;;;;15.91;70.96;101155.63;5093770;28;20491;-49
2022/09/21 09:17:18;;;;;;;2.75;1.05;;;;;;;16.29;69.95;101157.03;5085588;28;20028;-49
2022/09/21 09:20:03;;;;;;;3.15;1.00;;;;;;;16.42;69.61;101158.66;5079104;28;20092;-48
2022/09/21 09:22:39;;;;;;;4.15;1.17;;;;;;;16.46;69.41;101165.25;5109758;28;20023;-49
2022/09/21 09:25:19;;;;;;;6.13;1.13;;;;;;;16.63;68.79;101160.75;5092872;28;20657;-49
2022/09/21 09:27:47;;;;;;;3.65;1.27;;;;;;;16.64;68.73;101162.38;5074704;28;20024;-50
2022/09/21 09:30:17;;;;;;;3.42;1.08;;;;;;;16.72;68.30;101166.63;5091264;28;20028;-48
2022/09/21 09:32:53;;;;;;;3.83;1.58;;;;;;;16.79;68.67;101151.91;5111591;28;20034;-49
2022/09/21 09:35:29;;;;;;;4.35;1.40;;;;;;;16.85;68.48;101155.53;5114615;28;20390;-49
2022/09/21 09:38:28;;;;;;;3.15;1.00;;;;;;;16.88;68.50;101163.19;5113823;28;20038;-48
2022/09/21 09:41:23;;;;;;;4.07;1.25;;;;;;;17.10;68.60;101160.63;5114888;28;20030;-48
2022/09/21 09:44:10;;;;;;;4.38;1.50;;;;;;;17.22;68.58;101157.88;5099174;28;20173;-50
2022/09/21 09:46:43;;;;;;;4.45;1.23;;;;;;;17.08;69.37;101163.56;5090550;28;20036;-49
2022/09/21 09:49:18;;;;;;;4.25;1.27;;;;;;;17.05;69.29;101166.78;5109035;28;20125;-49
2022/09/21 09:51:46;;;;;;;3.45;1.17;;;;;;;17.06;69.28;101170.28;5113909;28;20448;-48
2022/09/21 09:54:17;;;;;;;5.90;1.40;;;;;;;17.03;69.58;101166.16;5104441;28;20554;-49
2022/09/21 09:56:44;;;;;;;6.95;1.20;;;;;;;17.07;69.73;101169.22;5113175;28;20016;-49
2022/09/21 09:59:16;;;;;;;3.03;1.10;;;;;;;17.07;69.96;101169.22;5103858;28;20028;-49
2022/09/21 10:01:45;;;;;;;4.25;1.30;;;;;;;17.13;69.67;101170.97;5109504;28;20108;-49
2022/09/21 10:04:14;;;;;;;4.78;1.10;;;;;;;17.14;69.80;101170.72;5111781;28;20027;-49
2022/09/21 10:06:41;;;;;;;2.80;1.40;;;;;;;17.13;69.96;101166.38;5114606;28;20041;-49
2022/09/21 10:09:23;;;;;;;4.60;1.23;;;;;;;17.15;70.31;101164.25;5113000;28;20104;-49
2022/09/21 10:11:51;;;;;;;2.85;1.20;;;;;;;17.17;70.41;101160.50;5110848;28;20039;-49
2022/09/21 10:14:21;;;;;;;2.95;1.40;;;;;;;17.18;70.51;101148.59;5108233;28;20049;-48
2022/09/21 10:16:50;;;;;;;3.95;1.33;;;;;;;17.22;70.39;101145.19;5110051;28;20032;-51
2022/09/21 10:19:22;;;;;;;3.80;1.20;;;;;;;17.26;69.76;101140.09;5112856;28;20047;-51
2022/09/21 10:21:56;;;;;;;3.08;1.17;;;;;;;17.33;69.54;101138.06;5112206;28;20026;-48
2022/09/21 10:24:27;;;;;;;4.57;1.60;;;;;;;17.28;69.95;101143.38;5091432;28;20033;-49
2022/09/21 10:27:10;;;;;;;2.17;1.15;;;;;;;17.31;69.62;101146.41;5073495;28;20028;-49
2022/09/21 10:29:48;;;;;;;2.55;1.20;;;;;;;17.27;69.57;101141.75;5105127;28;20110;-49
2022/09/21 10:32:17;;;;;;;4.45;1.30;;;;;;;17.35;69.12;101147.56;5086411;28;20028;-48
2022/09/21 10:35:06;;;;;;;5.32;1.50;;;;;;;17.12;69.54;101150.41;5111270;28;20485;-49
2022/09/21 10:37:39;;;;;;;4.60;1.30;;;;;;;16.88;70.54;101150.50;5102134;28;20044;-48
2022/09/21 10:40:20;;;;;;;5.45;1.92;;;;;;;16.80;70.69;101150.03;5111755;28;20038;-49
2022/09/21 10:42:59;;;;;;;4.32;1.40;;;;;;;16.93;70.34;101157.03;5104627;28;20036;-49
2022/09/21 10:45:28;;;;;;;5.80;1.48;;;;;;;17.20;68.95;101170.81;5096289;28;20035;-49
2022/09/21 10:48:14;;;;;;;4.97;1.33;;;;;;;17.01;69.44;101168.31;5101385;28;20081;-48
2022/09/21 10:50:41;;;;;;;;;;;;;;;16.96;69.75;101162.78;5101367;28;20468;-50
2022/09/21 10:53:20;;;;;;;4.03;1.30;;;;;;;16.91;69.53;101160.00;5107226;28;19935;-51
2022/09/21 10:56:03;;;;;;;5.93;1.77;;;;;;;16.81;70.41;101160.59;5110457;28;20034;-49
2022/09/21 10:58:31;;;;;;;2.78;1.40;;;;;;;16.58;71.05;101166.84;5105135;28;20027;-49
2022/09/21 11:01:21;;;;;;;3.75;1.17;;;;;;;16.51;71.62;101171.56;5102888;27;20024;-52
2022/09/21 11:04:01;;;;;;;3.50;1.55;;;;;;;16.61;70.96;101166.38;5092427;28;20358;-49
2022/09/21 11:06:53;;;;;;;5.65;1.30;;;;;;;16.76;70.48;101168.59;5093075;28;20020;-49
2022/09/21 11:09:31;;;;;;;6.40;1.40;;;;;;;16.59;71.22;101178.47;5095886;28;20047;-49
2022/09/21 11:12:25;;;;;;;4.80;1.50;;;;;;;16.21;72.74;101179.81;5113164;28;20036;-49
2022/09/21 11:14:51;;;;;;;2.30;1.13;;;;;;;15.84;75.17;101173.81;5104007;28;20055;-49
2022/09/21 11:17:43;;;;;;;5.50;1.30;;;;;;;15.72;75.91;101175.66;5108735;28;20024;-49
2022/09/21 11:20:33;;;;;;;3.72;1.10;;;;;;;15.96;74.66;101185.44;5082848;28;20047;-49
2022/09/21 11:23:10;;;;;;;3.35;1.20;;;;;;;16.26;74.15;101179.09;5078647;28;20020;-47
2022/09/21 11:25:52;;;;;;;4.80;1.77;;;;;;;16.17;75.34;101181.34;5113031;28;20558;-48
2022/09/21 11:28:41;;;;;;;3.97;1.40;;;;;;;16.18;74.63;101174.06;5095933;28;20040;-51
2022/09/21 11:31:23;;;;;;;5.82;1.70;;;;;;;16.13;74.79;101174.75;5062637;28;20056;-49
2022/09/21 11:34:04;;;;;;;5.43;1.70;;;;;;;16.05;75.67;101167.84;5092001;28;20024;-49
2022/09/21 11:36:42;;;;;;;4.25;1.25;;;;;;;16.30;74.19;101177.56;5077219;28;20532;-50
2022/09/21 11:39:31;;;;;;;5.07;1.52;;;;;;;16.53;73.38;101179.44;5104705;28;20039;-48
2022/09/21 11:42:00;;;;;;;5.30;1.48;;;;;;;15.91;76.23;101173.69;5105469;28;20042;-49
2022/09/21 11:44:41;;;;;;;4.32;1.98;;;;;;;16.07;75.76;101167.59;5107365;28;20049;-49
2022/09/21 11:47:39;;;;;;;5.00;1.50;;;;;;;16.44;74.39;101179.00;5108298;28;20028;-56
2022/09/21 11:50:24;;;;;;;3.90;1.60;;;;;;;16.41;74.12;101182.16;5091195;28;20047;-55
2022/09/21 11:53:30;;;;;;;4.80;1.77;;;;;;;16.55;73.51;101177.34;5093976;28;20850;-51